sensor_id;sensor_type;location;lat;lon;timestamp;temperature;humidity
21092;DHT22;10704;42.678;23.288;2022-07-29T00:05:06;19.50;99.90
21092;DHT22;10704;42.678;23.288;2022-07-29T00:11:20;19.30;99.90
21092;DHT22;10704;42.678;23.288;2022-07-29T00:17:07;19.10;99.90
21092;DHT22;10704;42.678;23.288;2022-07-29T00:22:50;18.90;99.90
21092;DHT22;10704;42.678;23.288;2022-07-29T00:25:16;18.90;99.90
21092;DHT22;10704;42.678;23.288;2022-07-29T00:27:41;18.90;99.90
21092;DHT22;10704;42.678;23.288;2022-07-29T00:30:08;19.00;99.90
21092;DHT22;10704;42.678;23.288;2022-07-29T00:32:34;19.00;99.90
21092;DHT22;10704;42.678;23.288;2022-07-29T00:35:00;19.00;99.90
21092;DHT22;10704;42.678;23.288;2022-07-29T00:37:44;19.00;99.90
21092;DHT22;10704;42.678;23.288;2022-07-29T00:43:57;19.10;99.90
21092;DHT22;10704;42.678;23.288;2022-07-29T00:46:23;19.10;99.90
21092;DHT22;10704;42.678;23.288;2022-07-29T00:52:41;19.20;99.90
21092;DHT22;10704;42.678;23.288;2022-07-29T00:55:11;19.20;99.90
21092;DHT22;10704;42.678;23.288;2022-07-29T01:01:25;19.00;99.90
21092;DHT22;10704;42.678;23.288;2022-07-29T01:07:17;18.90;99.90
21092;DHT22;10704;42.678;23.288;2022-07-29T01:17:00;18.70;99.90
21092;DHT22;10704;42.678;23.288;2022-07-29T01:39:37;18.80;99.90
21092;DHT22;10704;42.678;23.288;2022-07-29T01:44:57;18.50;99.90
21092;DHT22;10704;42.678;23.288;2022-07-29T01:47:29;18.50;99.90
21092;DHT22;10704;42.678;23.288;2022-07-29T01:50:00;18.60;99.90
21092;DHT22;10704;42.678;23.288;2022-07-29T01:52:33;18.80;99.90
21092;DHT22;10704;42.678;23.288;2022-07-29T01:55:05;18.80;99.90
21092;DHT22;10704;42.678;23.288;2022-07-29T01:57:34;18.90;99.90
21092;DHT22;10704;42.678;23.288;2022-07-29T02:00:03;18.90;99.90
21092;DHT22;10704;42.678;23.288;2022-07-29T02:06:25;19.00;99.90
21092;DHT22;10704;42.678;23.288;2022-07-29T02:12:40;18.90;99.90
21092;DHT22;10704;42.678;23.288;2022-07-29T02:15:09;19.00;99.90
21092;DHT22;10704;42.678;23.288;2022-07-29T02:17:48;18.90;99.90
21092;DHT22;10704;42.678;23.288;2022-07-29T02:20:16;18.70;99.90
21092;DHT22;10704;42.678;23.288;2022-07-29T02:22:43;18.60;99.90
21092;DHT22;10704;42.678;23.288;2022-07-29T02:25:11;18.50;99.90
21092;DHT22;10704;42.678;23.288;2022-07-29T02:27:38;18.50;99.90
21092;DHT22;10704;42.678;23.288;2022-07-29T02:30:06;18.50;99.90
21092;DHT22;10704;42.678;23.288;2022-07-29T02:32:36;18.60;99.90
21092;DHT22;10704;42.678;23.288;2022-07-29T02:35:03;18.50;99.90
21092;DHT22;10704;42.678;23.288;2022-07-29T02:37:30;18.50;99.90
21092;DHT22;10704;42.678;23.288;2022-07-29T02:39:58;18.60;99.90
21092;DHT22;10704;42.678;23.288;2022-07-29T02:42:26;18.60;99.90
21092;DHT22;10704;42.678;23.288;2022-07-29T02:44:53;18.50;99.90
21092;DHT22;10704;42.678;23.288;2022-07-29T02:50:09;18.80;99.90
21092;DHT22;10704;42.678;23.288;2022-07-29T02:52:52;18.80;99.90
21092;DHT22;10704;42.678;23.288;2022-07-29T02:55:30;18.80;99.90
21092;DHT22;10704;42.678;23.288;2022-07-29T02:58:55;19.00;99.90
21092;DHT22;10704;42.678;23.288;2022-07-29T03:00:59;19.00;99.90
21092;DHT22;10704;42.678;23.288;2022-07-29T03:03:32;19.10;99.90
21092;DHT22;10704;42.678;23.288;2022-07-29T03:09:46;19.00;99.90
21092;DHT22;10704;42.678;23.288;2022-07-29T03:12:14;19.00;99.90
21092;DHT22;10704;42.678;23.288;2022-07-29T03:14:40;19.00;99.90
21092;DHT22;10704;42.678;23.288;2022-07-29T03:20:54;18.90;99.90
21092;DHT22;10704;42.678;23.288;2022-07-29T03:23:21;18.90;99.90
21092;DHT22;10704;42.678;23.288;2022-07-29T03:25:53;18.80;99.90
21092;DHT22;10704;42.678;23.288;2022-07-29T03:28:19;18.70;99.90
21092;DHT22;10704;42.678;23.288;2022-07-29T03:30:46;18.50;99.90
21092;DHT22;10704;42.678;23.288;2022-07-29T03:33:12;18.20;99.90
21092;DHT22;10704;42.678;23.288;2022-07-29T03:35:38;18.20;99.90
21092;DHT22;10704;42.678;23.288;2022-07-29T03:38:10;18.20;99.90
21092;DHT22;10704;42.678;23.288;2022-07-29T03:40:40;18.20;99.90
21092;DHT22;10704;42.678;23.288;2022-07-29T03:54:32;18.30;99.90
21092;DHT22;10704;42.678;23.288;2022-07-29T03:56:59;18.40;99.90
21092;DHT22;10704;42.678;23.288;2022-07-29T04:03:13;18.60;99.90
21092;DHT22;10704;42.678;23.288;2022-07-29T04:05:39;18.70;99.90
21092;DHT22;10704;42.678;23.288;2022-07-29T04:08:05;18.80;99.90
21092;DHT22;10704;42.678;23.288;2022-07-29T04:14:18;18.90;99.90
21092;DHT22;10704;42.678;23.288;2022-07-29T04:16:44;19.00;99.90
21092;DHT22;10704;42.678;23.288;2022-07-29T04:19:10;19.10;99.90
21092;DHT22;10704;42.678;23.288;2022-07-29T04:21:40;19.40;99.90
21092;DHT22;10704;42.678;23.288;2022-07-29T04:24:07;19.50;99.90
21092;DHT22;10704;42.678;23.288;2022-07-29T04:26:33;19.70;99.90
21092;DHT22;10704;42.678;23.288;2022-07-29T04:28:59;19.50;99.90
21092;DHT22;10704;42.678;23.288;2022-07-29T04:31:25;19.40;99.90
21092;DHT22;10704;42.678;23.288;2022-07-29T04:33:51;19.50;99.90
21092;DHT22;10704;42.678;23.288;2022-07-29T04:36:17;19.40;99.90
21092;DHT22;10704;42.678;23.288;2022-07-29T04:38:43;19.30;99.90
21092;DHT22;10704;42.678;23.288;2022-07-29T04:41:09;19.40;99.90
21092;DHT22;10704;42.678;23.288;2022-07-29T04:43:36;19.60;99.90
21092;DHT22;10704;42.678;23.288;2022-07-29T04:46:03;19.70;99.90
21092;DHT22;10704;42.678;23.288;2022-07-29T04:48:29;19.80;99.90
21092;DHT22;10704;42.678;23.288;2022-07-29T04:51:15;19.80;99.90
21092;DHT22;10704;42.678;23.288;2022-07-29T04:53:41;19.90;99.90
21092;DHT22;10704;42.678;23.288;2022-07-29T04:59:54;20.00;99.90
21092;DHT22;10704;42.678;23.288;2022-07-29T05:02:20;20.20;99.90
21092;DHT22;10704;42.678;23.288;2022-07-29T05:04:47;20.30;99.90
21092;DHT22;10704;42.678;23.288;2022-07-29T05:07:13;20.30;99.90
21092;DHT22;10704;42.678;23.288;2022-07-29T05:09:40;20.30;99.90
21092;DHT22;10704;42.678;23.288;2022-07-29T05:12:06;20.30;99.90
21092;DHT22;10704;42.678;23.288;2022-07-29T05:14:32;20.20;99.90
21092;DHT22;10704;42.678;23.288;2022-07-29T05:16:58;20.30;99.90
21092;DHT22;10704;42.678;23.288;2022-07-29T05:19:24;20.40;99.90
21092;DHT22;10704;42.678;23.288;2022-07-29T05:21:50;20.70;99.90
21092;DHT22;10704;42.678;23.288;2022-07-29T05:24:16;20.80;99.90
21092;DHT22;10704;42.678;23.288;2022-07-29T05:26:42;20.90;99.90
21092;DHT22;10704;42.678;23.288;2022-07-29T05:29:08;21.20;99.90
21092;DHT22;10704;42.678;23.288;2022-07-29T05:31:34;21.30;99.90
21092;DHT22;10704;42.678;23.288;2022-07-29T05:34:00;21.30;99.90
21092;DHT22;10704;42.678;23.288;2022-07-29T05:36:26;21.40;99.90
21092;DHT22;10704;42.678;23.288;2022-07-29T05:38:52;21.40;99.90
21092;DHT22;10704;42.678;23.288;2022-07-29T05:41:19;21.50;99.90
21092;DHT22;10704;42.678;23.288;2022-07-29T05:43:45;21.70;99.90
21092;DHT22;10704;42.678;23.288;2022-07-29T05:46:11;22.00;99.90
21092;DHT22;10704;42.678;23.288;2022-07-29T05:52:38;22.50;99.90
21092;DHT22;10704;42.678;23.288;2022-07-29T05:55:04;22.70;99.90
21092;DHT22;10704;42.678;23.288;2022-07-29T06:01:18;22.80;99.90
21092;DHT22;10704;42.678;23.288;2022-07-29T06:11:18;23.30;99.90
21092;DHT22;10704;42.678;23.288;2022-07-29T06:13:44;23.30;99.90
21092;DHT22;10704;42.678;23.288;2022-07-29T06:16:10;23.60;99.90
21092;DHT22;10704;42.678;23.288;2022-07-29T06:22:23;23.60;99.90
21092;DHT22;10704;42.678;23.288;2022-07-29T06:24:49;23.40;99.90
21092;DHT22;10704;42.678;23.288;2022-07-29T06:27:15;23.60;99.90
21092;DHT22;10704;42.678;23.288;2022-07-29T06:32:49;24.00;99.90
21092;DHT22;10704;42.678;23.288;2022-07-29T06:35:15;23.70;99.90
21092;DHT22;10704;42.678;23.288;2022-07-29T06:37:41;23.60;99.90
21092;DHT22;10704;42.678;23.288;2022-07-29T06:40:07;23.50;99.90
21092;DHT22;10704;42.678;23.288;2022-07-29T06:46:38;23.90;99.90
21092;DHT22;10704;42.678;23.288;2022-07-29T06:49:04;24.20;99.90
21092;DHT22;10704;42.678;23.288;2022-07-29T06:58:45;24.70;99.90
21092;DHT22;10704;42.678;23.288;2022-07-29T07:01:12;24.70;99.90
21092;DHT22;10704;42.678;23.288;2022-07-29T07:03:38;24.50;99.90
21092;DHT22;10704;42.678;23.288;2022-07-29T07:06:04;24.50;99.90
21092;DHT22;10704;42.678;23.288;2022-07-29T07:08:30;24.60;99.90
21092;DHT22;10704;42.678;23.288;2022-07-29T07:14:42;25.00;99.90
21092;DHT22;10704;42.678;23.288;2022-07-29T07:17:42;25.60;99.90
21092;DHT22;10704;42.678;23.288;2022-07-29T07:20:09;25.80;99.90
21092;DHT22;10704;42.678;23.288;2022-07-29T07:22:34;25.80;99.90
21092;DHT22;10704;42.678;23.288;2022-07-29T07:25:00;25.80;99.90
21092;DHT22;10704;42.678;23.288;2022-07-29T07:27:26;25.50;99.90
21092;DHT22;10704;42.678;23.288;2022-07-29T07:29:53;25.80;99.90
21092;DHT22;10704;42.678;23.288;2022-07-29T07:32:24;26.10;99.90
21092;DHT22;10704;42.678;23.288;2022-07-29T07:34:50;26.20;99.90
21092;DHT22;10704;42.678;23.288;2022-07-29T07:37:16;26.40;99.90
21092;DHT22;10704;42.678;23.288;2022-07-29T07:39:44;26.50;99.90
21092;DHT22;10704;42.678;23.288;2022-07-29T07:42:10;26.00;99.90
21092;DHT22;10704;42.678;23.288;2022-07-29T07:44:39;26.20;99.90
21092;DHT22;10704;42.678;23.288;2022-07-29T07:47:05;26.40;99.90
21092;DHT22;10704;42.678;23.288;2022-07-29T07:49:31;26.60;99.90
21092;DHT22;10704;42.678;23.288;2022-07-29T07:51:57;26.50;99.90
21092;DHT22;10704;42.678;23.288;2022-07-29T07:54:23;26.90;99.90
21092;DHT22;10704;42.678;23.288;2022-07-29T07:56:49;27.30;99.90
21092;DHT22;10704;42.678;23.288;2022-07-29T07:59:15;27.60;99.90
21092;DHT22;10704;42.678;23.288;2022-07-29T08:01:41;27.80;99.30
21092;DHT22;10704;42.678;23.288;2022-07-29T08:04:08;28.00;96.70
21092;DHT22;10704;42.678;23.288;2022-07-29T08:06:34;28.00;97.10
21092;DHT22;10704;42.678;23.288;2022-07-29T08:09:04;28.20;95.80
21092;DHT22;10704;42.678;23.288;2022-07-29T08:11:30;28.50;94.00
21092;DHT22;10704;42.678;23.288;2022-07-29T08:14:05;28.50;93.40
21092;DHT22;10704;42.678;23.288;2022-07-29T08:16:31;28.50;93.10
21092;DHT22;10704;42.678;23.288;2022-07-29T08:22:16;28.60;92.10
21092;DHT22;10704;42.678;23.288;2022-07-29T08:24:42;28.90;91.30
21092;DHT22;10704;42.678;23.288;2022-07-29T08:27:22;29.20;90.70
21092;DHT22;10704;42.678;23.288;2022-07-29T08:29:48;29.10;90.00
21092;DHT22;10704;42.678;23.288;2022-07-29T08:32:14;28.80;90.10
21092;DHT22;10704;42.678;23.288;2022-07-29T08:38:27;28.70;89.30
21092;DHT22;10704;42.678;23.288;2022-07-29T08:41:19;29.40;86.20
21092;DHT22;10704;42.678;23.288;2022-07-29T08:50:53;29.70;82.00
21092;DHT22;10704;42.678;23.288;2022-07-29T08:53:21;30.50;77.90
21092;DHT22;10704;42.678;23.288;2022-07-29T08:55:50;30.60;77.30
21092;DHT22;10704;42.678;23.288;2022-07-29T08:58:16;30.70;74.40
21092;DHT22;10704;42.678;23.288;2022-07-29T09:00:45;29.80;75.80
21092;DHT22;10704;42.678;23.288;2022-07-29T09:03:17;30.10;76.10
21092;DHT22;10704;42.678;23.288;2022-07-29T09:09:30;30.90;73.60
21092;DHT22;10704;42.678;23.288;2022-07-29T09:11:58;31.60;71.80
21092;DHT22;10704;42.678;23.288;2022-07-29T09:18:39;32.20;69.20
21092;DHT22;10704;42.678;23.288;2022-07-29T09:21:07;32.70;67.40
21092;DHT22;10704;42.678;23.288;2022-07-29T09:28:19;32.90;66.20
21092;DHT22;10704;42.678;23.288;2022-07-29T09:30:56;31.90;64.60
21092;DHT22;10704;42.678;23.288;2022-07-29T09:33:32;31.60;66.10
21092;DHT22;10704;42.678;23.288;2022-07-29T09:36:09;32.30;64.30
21092;DHT22;10704;42.678;23.288;2022-07-29T09:42:35;33.30;62.40
21092;DHT22;10704;42.678;23.288;2022-07-29T09:45:01;33.70;60.10
21092;DHT22;10704;42.678;23.288;2022-07-29T09:47:41;34.20;59.50
21092;DHT22;10704;42.678;23.288;2022-07-29T09:50:07;33.90;59.20
21092;DHT22;10704;42.678;23.288;2022-07-29T10:00:00;35.40;54.80
21092;DHT22;10704;42.678;23.288;2022-07-29T10:02:32;35.00;56.20
21092;DHT22;10704;42.678;23.288;2022-07-29T10:04:59;35.00;56.60
21092;DHT22;10704;42.678;23.288;2022-07-29T10:07:25;35.50;55.50
21092;DHT22;10704;42.678;23.288;2022-07-29T10:09:56;36.10;54.80
21092;DHT22;10704;42.678;23.288;2022-07-29T10:12:24;36.40;54.10
21092;DHT22;10704;42.678;23.288;2022-07-29T10:14:50;36.40;54.30
21092;DHT22;10704;42.678;23.288;2022-07-29T10:17:17;36.80;53.60
21092;DHT22;10704;42.678;23.288;2022-07-29T10:19:44;37.20;52.90
21092;DHT22;10704;42.678;23.288;2022-07-29T10:26:10;37.00;51.90
21092;DHT22;10704;42.678;23.288;2022-07-29T10:36:26;36.30;52.70
21092;DHT22;10704;42.678;23.288;2022-07-29T10:42:18;35.80;52.80
21092;DHT22;10704;42.678;23.288;2022-07-29T10:44:47;36.10;53.20
21092;DHT22;10704;42.678;23.288;2022-07-29T10:51:03;36.90;51.50
21092;DHT22;10704;42.678;23.288;2022-07-29T10:53:51;36.80;51.20
21092;DHT22;10704;42.678;23.288;2022-07-29T11:03:47;38.40;48.90
21092;DHT22;10704;42.678;23.288;2022-07-29T11:06:15;37.10;50.50
21092;DHT22;10704;42.678;23.288;2022-07-29T11:08:42;37.40;50.60
21092;DHT22;10704;42.678;23.288;2022-07-29T11:13:48;36.90;50.60
21092;DHT22;10704;42.678;23.288;2022-07-29T11:16:19;37.20;51.00
21092;DHT22;10704;42.678;23.288;2022-07-29T11:25:26;36.50;50.90
21092;DHT22;10704;42.678;23.288;2022-07-29T11:27:54;36.30;52.00
21092;DHT22;10704;42.678;23.288;2022-07-29T11:30:20;34.70;52.10
21092;DHT22;10704;42.678;23.288;2022-07-29T11:32:46;34.30;53.50
21092;DHT22;10704;42.678;23.288;2022-07-29T11:35:20;34.60;53.60
21092;DHT22;10704;42.678;23.288;2022-07-29T11:46:45;33.60;53.80
21092;DHT22;10704;42.678;23.288;2022-07-29T11:49:12;32.30;55.60
21092;DHT22;10704;42.678;23.288;2022-07-29T11:51:39;32.20;56.40
21092;DHT22;10704;42.678;23.288;2022-07-29T11:57:59;32.00;56.40
21092;DHT22;10704;42.678;23.288;2022-07-29T12:00:29;32.10;56.80
21092;DHT22;10704;42.678;23.288;2022-07-29T12:06:42;33.20;54.80
21092;DHT22;10704;42.678;23.288;2022-07-29T12:09:09;34.40;54.80
21092;DHT22;10704;42.678;23.288;2022-07-29T12:15:23;35.80;52.20
21092;DHT22;10704;42.678;23.288;2022-07-29T12:17:49;35.10;51.60
21092;DHT22;10704;42.678;23.288;2022-07-29T12:24:03;35.30;52.00
21092;DHT22;10704;42.678;23.288;2022-07-29T12:30:16;36.00;50.20
21092;DHT22;10704;42.678;23.288;2022-07-29T12:32:47;35.20;51.00
21092;DHT22;10704;42.678;23.288;2022-07-29T12:39:00;35.40;50.00
21092;DHT22;10704;42.678;23.288;2022-07-29T12:41:30;34.20;51.80
21092;DHT22;10704;42.678;23.288;2022-07-29T12:47:53;34.40;51.20
21092;DHT22;10704;42.678;23.288;2022-07-29T12:50:19;33.40;52.40
21092;DHT22;10704;42.678;23.288;2022-07-29T12:52:45;33.20;52.80
21092;DHT22;10704;42.678;23.288;2022-07-29T12:55:14;32.70;53.30
21092;DHT22;10704;42.678;23.288;2022-07-29T12:57:47;33.50;53.00
21092;DHT22;10704;42.678;23.288;2022-07-29T13:04:38;34.50;51.10
21092;DHT22;10704;42.678;23.288;2022-07-29T13:07:05;34.40;50.90
21092;DHT22;10704;42.678;23.288;2022-07-29T13:09:45;35.10;50.90
21092;DHT22;10704;42.678;23.288;2022-07-29T13:12:24;36.20;49.00
21092;DHT22;10704;42.678;23.288;2022-07-29T13:14:50;35.40;49.30
21092;DHT22;10704;42.678;23.288;2022-07-29T13:17:21;35.60;48.70
21092;DHT22;10704;42.678;23.288;2022-07-29T13:22:56;35.50;49.30
21092;DHT22;10704;42.678;23.288;2022-07-29T13:29:09;35.30;49.30
21092;DHT22;10704;42.678;23.288;2022-07-29T13:35:23;34.90;50.20
21092;DHT22;10704;42.678;23.288;2022-07-29T13:41:36;34.10;52.00
21092;DHT22;10704;42.678;23.288;2022-07-29T13:51:04;34.40;49.80
21092;DHT22;10704;42.678;23.288;2022-07-29T13:53:30;34.40;50.60
21092;DHT22;10704;42.678;23.288;2022-07-29T13:55:56;34.90;50.60
21092;DHT22;10704;42.678;23.288;2022-07-29T14:05:57;34.50;49.80
21092;DHT22;10704;42.678;23.288;2022-07-29T14:08:25;34.40;49.60
21092;DHT22;10704;42.678;23.288;2022-07-29T14:10:51;34.30;49.70
21092;DHT22;10704;42.678;23.288;2022-07-29T14:13:17;33.80;50.70
21092;DHT22;10704;42.678;23.288;2022-07-29T14:15:44;33.90;50.70
21092;DHT22;10704;42.678;23.288;2022-07-29T14:18:10;34.30;50.30
21092;DHT22;10704;42.678;23.288;2022-07-29T14:20:36;33.80;51.10
21092;DHT22;10704;42.678;23.288;2022-07-29T14:23:02;34.90;49.90
21092;DHT22;10704;42.678;23.288;2022-07-29T14:25:28;35.20;49.30
21092;DHT22;10704;42.678;23.288;2022-07-29T14:28:23;35.30;48.70
21092;DHT22;10704;42.678;23.288;2022-07-29T14:30:49;35.00;48.40
21092;DHT22;10704;42.678;23.288;2022-07-29T14:37:04;35.00;49.20
21092;DHT22;10704;42.678;23.288;2022-07-29T14:39:31;35.60;48.60
21092;DHT22;10704;42.678;23.288;2022-07-29T14:41:57;34.60;49.30
21092;DHT22;10704;42.678;23.288;2022-07-29T14:44:23;35.20;49.20
21092;DHT22;10704;42.678;23.288;2022-07-29T14:46:49;35.90;48.00
21092;DHT22;10704;42.678;23.288;2022-07-29T14:49:16;35.30;47.50
21092;DHT22;10704;42.678;23.288;2022-07-29T14:51:42;34.00;48.90
21092;DHT22;10704;42.678;23.288;2022-07-29T14:54:32;33.70;49.70
21092;DHT22;10704;42.678;23.288;2022-07-29T14:56:57;33.80;49.90
21092;DHT22;10704;42.678;23.288;2022-07-29T14:59:24;34.20;50.20
21092;DHT22;10704;42.678;23.288;2022-07-29T15:01:57;35.00;48.90
21092;DHT22;10704;42.678;23.288;2022-07-29T15:04:23;35.00;48.80
21092;DHT22;10704;42.678;23.288;2022-07-29T15:06:55;34.80;48.60
21092;DHT22;10704;42.678;23.288;2022-07-29T15:09:21;34.90;48.60
21092;DHT22;10704;42.678;23.288;2022-07-29T15:15:35;35.00;48.00
21092;DHT22;10704;42.678;23.288;2022-07-29T15:18:01;34.10;48.90
21092;DHT22;10704;42.678;23.288;2022-07-29T15:20:27;34.20;49.40
21092;DHT22;10704;42.678;23.288;2022-07-29T15:22:54;34.70;48.90
21092;DHT22;10704;42.678;23.288;2022-07-29T15:25:22;35.00;48.10
21092;DHT22;10704;42.678;23.288;2022-07-29T15:27:48;34.90;48.30
21092;DHT22;10704;42.678;23.288;2022-07-29T15:34:02;34.70;48.50
21092;DHT22;10704;42.678;23.288;2022-07-29T15:36:28;33.90;49.80
21092;DHT22;10704;42.678;23.288;2022-07-29T15:38:59;33.40;50.50
21092;DHT22;10704;42.678;23.288;2022-07-29T15:41:25;32.90;51.20
21092;DHT22;10704;42.678;23.288;2022-07-29T15:43:51;32.80;51.50
21092;DHT22;10704;42.678;23.288;2022-07-29T15:46:19;32.70;51.70
21092;DHT22;10704;42.678;23.288;2022-07-29T15:49:05;32.20;52.30
21092;DHT22;10704;42.678;23.288;2022-07-29T15:55:19;31.30;53.70
21092;DHT22;10704;42.678;23.288;2022-07-29T15:57:45;31.50;53.70
21092;DHT22;10704;42.678;23.288;2022-07-29T16:07:53;31.30;54.50
21092;DHT22;10704;42.678;23.288;2022-07-29T16:10:19;30.90;55.70
21092;DHT22;10704;42.678;23.288;2022-07-29T16:12:45;30.90;55.60
21092;DHT22;10704;42.678;23.288;2022-07-29T16:15:11;30.60;56.20
21092;DHT22;10704;42.678;23.288;2022-07-29T16:17:37;30.30;56.80
21092;DHT22;10704;42.678;23.288;2022-07-29T16:20:05;30.20;57.30
21092;DHT22;10704;42.678;23.288;2022-07-29T16:23:05;30.20;57.50
21092;DHT22;10704;42.678;23.288;2022-07-29T16:25:32;30.10;57.70
21092;DHT22;10704;42.678;23.288;2022-07-29T16:31:46;30.30;57.70
21092;DHT22;10704;42.678;23.288;2022-07-29T16:34:12;30.30;58.00
21092;DHT22;10704;42.678;23.288;2022-07-29T16:36:38;30.10;58.00
21092;DHT22;10704;42.678;23.288;2022-07-29T16:42:17;29.90;58.70
21092;DHT22;10704;42.678;23.288;2022-07-29T16:44:42;29.80;59.00
21092;DHT22;10704;42.678;23.288;2022-07-29T16:47:08;29.80;59.20
21092;DHT22;10704;42.678;23.288;2022-07-29T16:52:52;29.80;58.60
21092;DHT22;10704;42.678;23.288;2022-07-29T16:55:18;29.90;58.60
21092;DHT22;10704;42.678;23.288;2022-07-29T16:57:46;29.80;58.40
21092;DHT22;10704;42.678;23.288;2022-07-29T17:00:15;29.60;58.80
21092;DHT22;10704;42.678;23.288;2022-07-29T17:05:24;29.50;58.90
21092;DHT22;10704;42.678;23.288;2022-07-29T17:07:51;29.50;58.80
21092;DHT22;10704;42.678;23.288;2022-07-29T17:10:19;29.30;58.90
21092;DHT22;10704;42.678;23.288;2022-07-29T17:12:46;29.20;59.20
21092;DHT22;10704;42.678;23.288;2022-07-29T17:15:13;29.20;59.50
21092;DHT22;10704;42.678;23.288;2022-07-29T17:17:40;29.30;59.00
21092;DHT22;10704;42.678;23.288;2022-07-29T17:20:09;29.20;59.00
21092;DHT22;10704;42.678;23.288;2022-07-29T17:22:36;29.30;58.90
21092;DHT22;10704;42.678;23.288;2022-07-29T17:28:09;29.10;59.20
21092;DHT22;10704;42.678;23.288;2022-07-29T17:30:35;28.90;59.50
21092;DHT22;10704;42.678;23.288;2022-07-29T17:33:01;28.90;59.60
21092;DHT22;10704;42.678;23.288;2022-07-29T17:39:15;28.60;60.10
21092;DHT22;10704;42.678;23.288;2022-07-29T17:41:41;28.50;60.30
21092;DHT22;10704;42.678;23.288;2022-07-29T17:44:09;28.40;60.20
21092;DHT22;10704;42.678;23.288;2022-07-29T17:46:37;28.30;60.30
21092;DHT22;10704;42.678;23.288;2022-07-29T17:49:05;28.20;60.10
21092;DHT22;10704;42.678;23.288;2022-07-29T17:51:31;28.10;60.30
21092;DHT22;10704;42.678;23.288;2022-07-29T17:53:57;28.00;60.50
21092;DHT22;10704;42.678;23.288;2022-07-29T17:56:24;27.90;60.40
21092;DHT22;10704;42.678;23.288;2022-07-29T17:58:50;27.80;60.40
21092;DHT22;10704;42.678;23.288;2022-07-29T18:05:04;27.60;60.10
21092;DHT22;10704;42.678;23.288;2022-07-29T18:07:30;27.60;60.10
21092;DHT22;10704;42.678;23.288;2022-07-29T18:09:56;27.50;60.40
21092;DHT22;10704;42.678;23.288;2022-07-29T18:12:22;27.50;60.40
21092;DHT22;10704;42.678;23.288;2022-07-29T18:14:48;27.40;60.70
21092;DHT22;10704;42.678;23.288;2022-07-29T18:21:02;27.30;60.80
21092;DHT22;10704;42.678;23.288;2022-07-29T18:23:28;27.30;60.30
21092;DHT22;10704;42.678;23.288;2022-07-29T18:25:55;27.30;60.50
21092;DHT22;10704;42.678;23.288;2022-07-29T18:28:21;27.20;60.20
21092;DHT22;10704;42.678;23.288;2022-07-29T18:30:47;27.10;60.40
21092;DHT22;10704;42.678;23.288;2022-07-29T18:33:13;27.10;60.30
21092;DHT22;10704;42.678;23.288;2022-07-29T18:35:43;27.10;60.50
21092;DHT22;10704;42.678;23.288;2022-07-29T18:38:10;27.10;60.70
21092;DHT22;10704;42.678;23.288;2022-07-29T18:40:36;27.10;60.90
21092;DHT22;10704;42.678;23.288;2022-07-29T18:43:05;26.90;61.10
21092;DHT22;10704;42.678;23.288;2022-07-29T18:45:31;26.90;61.10
21092;DHT22;10704;42.678;23.288;2022-07-29T18:47:57;26.80;61.30
21092;DHT22;10704;42.678;23.288;2022-07-29T18:54:11;26.80;61.40
21092;DHT22;10704;42.678;23.288;2022-07-29T18:56:37;26.70;61.60
21092;DHT22;10704;42.678;23.288;2022-07-29T18:59:03;26.60;61.60
21092;DHT22;10704;42.678;23.288;2022-07-29T19:01:30;26.60;61.60
21092;DHT22;10704;42.678;23.288;2022-07-29T19:03:56;26.60;61.60
21092;DHT22;10704;42.678;23.288;2022-07-29T19:06:21;26.60;61.90
21092;DHT22;10704;42.678;23.288;2022-07-29T19:09:23;26.50;61.70
21092;DHT22;10704;42.678;23.288;2022-07-29T19:11:49;26.50;62.30
21092;DHT22;10704;42.678;23.288;2022-07-29T19:14:14;26.40;62.60
21092;DHT22;10704;42.678;23.288;2022-07-29T19:16:41;26.40;62.80
21092;DHT22;10704;42.678;23.288;2022-07-29T19:19:06;26.30;63.00
21092;DHT22;10704;42.678;23.288;2022-07-29T19:21:32;26.40;63.00
21092;DHT22;10704;42.678;23.288;2022-07-29T19:23:58;26.30;63.00
21092;DHT22;10704;42.678;23.288;2022-07-29T19:26:24;26.30;62.90
21092;DHT22;10704;42.678;23.288;2022-07-29T19:28:50;26.30;63.00
21092;DHT22;10704;42.678;23.288;2022-07-29T19:31:16;26.30;63.20
21092;DHT22;10704;42.678;23.288;2022-07-29T19:33:42;26.30;63.60
21092;DHT22;10704;42.678;23.288;2022-07-29T19:36:08;26.10;64.20
21092;DHT22;10704;42.678;23.288;2022-07-29T19:38:34;26.10;64.70
21092;DHT22;10704;42.678;23.288;2022-07-29T19:41:02;26.10;65.10
21092;DHT22;10704;42.678;23.288;2022-07-29T19:43:28;26.00;65.50
21092;DHT22;10704;42.678;23.288;2022-07-29T19:45:56;25.90;65.90
21092;DHT22;10704;42.678;23.288;2022-07-29T19:48:22;25.90;65.90
21092;DHT22;10704;42.678;23.288;2022-07-29T19:50:48;25.80;66.30
21092;DHT22;10704;42.678;23.288;2022-07-29T19:53:14;25.60;67.30
21092;DHT22;10704;42.678;23.288;2022-07-29T19:55:40;25.50;68.00
21092;DHT22;10704;42.678;23.288;2022-07-29T20:01:54;25.30;68.70
21092;DHT22;10704;42.678;23.288;2022-07-29T20:11:37;25.40;68.50
21092;DHT22;10704;42.678;23.288;2022-07-29T20:17:51;25.40;68.20
21092;DHT22;10704;42.678;23.288;2022-07-29T20:20:17;25.50;68.40
21092;DHT22;10704;42.678;23.288;2022-07-29T20:29:46;25.30;69.20
21092;DHT22;10704;42.678;23.288;2022-07-29T20:32:12;25.20;70.30
21092;DHT22;10704;42.678;23.288;2022-07-29T20:37:48;25.10;70.20
21092;DHT22;10704;42.678;23.288;2022-07-29T20:40:15;25.00;70.70
21092;DHT22;10704;42.678;23.288;2022-07-29T20:42:42;25.00;71.10
21092;DHT22;10704;42.678;23.288;2022-07-29T20:48:55;24.80;72.00
21092;DHT22;10704;42.678;23.288;2022-07-29T20:51:21;24.90;72.30
21092;DHT22;10704;42.678;23.288;2022-07-29T20:53:47;24.80;72.50
21092;DHT22;10704;42.678;23.288;2022-07-29T20:56:13;24.80;72.60
21092;DHT22;10704;42.678;23.288;2022-07-29T20:58:39;24.70;72.80
21092;DHT22;10704;42.678;23.288;2022-07-29T21:01:07;24.70;72.90
21092;DHT22;10704;42.678;23.288;2022-07-29T21:07:21;24.80;73.30
21092;DHT22;10704;42.678;23.288;2022-07-29T21:09:47;24.70;73.70
21092;DHT22;10704;42.678;23.288;2022-07-29T21:12:13;24.70;74.00
21092;DHT22;10704;42.678;23.288;2022-07-29T21:14:39;24.60;74.20
21092;DHT22;10704;42.678;23.288;2022-07-29T21:20:53;24.60;74.90
21092;DHT22;10704;42.678;23.288;2022-07-29T21:23:19;24.60;75.30
21092;DHT22;10704;42.678;23.288;2022-07-29T21:25:45;24.60;75.70
21092;DHT22;10704;42.678;23.288;2022-07-29T21:28:11;24.60;75.90
21092;DHT22;10704;42.678;23.288;2022-07-29T21:30:58;24.50;76.20